Accueil
METAR-TAF:

METAR-TAF

Aéroports :

Deming, Nouveau-Mexique, États-Unis

latitude: 32-15-44N, longitude: 107-43-14W, altitude: 1315 m

Observation

Le bulletin a été fait il y a 1 heure et 19 minutes, à 12:53 UTC
Vent 8 kt de est/nord-est
Température 19°C
Humidité 49%
Pression 1021 hPa
Visibilité: 16.1 km
Ciel clair

METAR: KDMN 011253Z AUTO 06008KT 10SM CLR 19/08 A3016 RMK AO2 SLP134 T01890078

Heure: 08:12 (14:12 UTC)

Prévision

Le bulletin a été fait il y a 2 heures et 47 minutes, à 11:25 UTC
Prévision valable du 01 à 12 UTC au 02 à 12 UTC
Vent 10 kt de est/sud-est
Visibilité: 10 km
Ciel clair
A partir de 02 à 0100 UTC
Vent 8 kt de est
Visibilité: 10 km
Quelques nuages à une hauteur de 25000 ft

TAF: KDMN 011125Z 0112/0212 12010KT P6SM SKC FM020100 10008KT P6SM FEW250

Observations et prévisions météorologiques de plus de 4000 aéroports (messages METAR et TAF).

Les stations disponibles sont représentées par des disques jaunes et rouges sur la carte.

Passer la souris dessus pour voir le nom de la station.

Cliquer dessus pour voir les observations et prévisions météorologiques.

Pour changer de carte: cliquez sur les boutons verts avec une croix noire pour zoomer, sur le bouton vert avec un tiret pour effectuer un zoom arrière, ou sur les flèches vertes pour les cartes adjacentes.


METAR-TAF: